Time;durP1;ratioP1;P1;durP2;ratioP2;P2;SDS_P1;SDS_P2;PMS_P1;PMS_P2;Temp;Humidity;BMP_temperature;BMP_pressure;BME280_temperature;BME280_humidity;BME280_pressure;Samples;Min_cycle;Max_cycle;Signal;HPM_P1;HPM_P2
2022/06/18 00:02:23;;;;;;;5.23;4.80;;;18.60;99.90;;;;;;5117096;28;20918;-61
2022/06/18 00:04:50;;;;;;;5.47;5.07;;;18.60;99.90;;;;;;5119573;28;20462;-60
2022/06/18 00:07:20;;;;;;;5.23;4.77;;;18.60;99.90;;;;;;5135841;28;20466;-61
2022/06/18 00:10:01;;;;;;;6.30;5.33;;;18.70;99.90;;;;;;5137278;27;20508;-61
2022/06/18 00:15:24;;;;;;;5.27;4.63;;;18.60;99.90;;;;;;5137126;27;20529;-61
2022/06/18 00:17:59;;;;;;;5.03;4.43;;;18.60;99.90;;;;;;5132914;27;20477;-60
2022/06/18 00:20:30;;;;;;;5.50;4.77;;;18.50;99.90;;;;;;5121068;27;20459;-61
2022/06/18 00:23:00;;;;;;;5.17;4.50;;;18.60;99.90;;;;;;5120215;28;20490;-61
2022/06/18 00:25:35;;;;;;;5.47;4.97;;;18.60;99.90;;;;;;5120958;27;20454;-61
2022/06/18 00:28:09;;;;;;;4.57;3.90;;;18.50;99.90;;;;;;5120079;28;20455;-61
2022/06/18 00:30:39;;;;;;;5.37;4.60;;;18.60;99.90;;;;;;5119817;28;20936;-61
2022/06/18 00:33:07;;;;;;;4.70;4.07;;;18.70;99.90;;;;;;5120339;28;20467;-61
2022/06/18 00:35:35;;;;;;;4.63;3.97;;;19.00;99.90;;;;;;5120403;28;20510;-61
2022/06/18 00:38:04;;;;;;;4.80;4.40;;;19.00;99.90;;;;;;5121483;27;20459;-61
2022/06/18 00:40:37;;;;;;;6.43;4.47;;;19.00;99.90;;;;;;5119995;28;20891;-61
2022/06/18 00:43:11;;;;;;;5.17;4.20;;;19.00;99.90;;;;;;5120016;28;20459;-61
2022/06/18 00:45:40;;;;;;;4.80;4.30;;;19.10;99.90;;;;;;5120029;28;20463;-61
2022/06/18 00:48:12;;;;;;;5.07;3.90;;;19.20;99.90;;;;;;5133771;27;20888;-61
2022/06/18 00:50:44;;;;;;;4.63;4.23;;;19.30;99.90;;;;;;5140383;27;20489;-61
2022/06/18 00:53:16;;;;;;;5.30;4.00;;;19.30;99.90;;;;;;5119768;28;20468;-61
2022/06/18 00:55:48;;;;;;;5.87;4.10;;;19.40;99.90;;;;;;5119959;28;20459;-61
2022/06/18 00:58:21;;;;;;;4.93;4.07;;;19.40;99.90;;;;;;5126543;27;20459;-61
2022/06/18 01:00:50;;;;;;;4.60;3.80;;;19.40;99.90;;;;;;5140372;27;20457;-61
2022/06/18 01:03:26;;;;;;;6.60;5.00;;;19.30;99.90;;;;;;5138265;27;20459;-61
2022/06/18 01:05:55;;;;;;;4.90;4.27;;;19.30;99.90;;;;;;5140345;27;20458;-61
2022/06/18 01:08:27;;;;;;;4.83;4.43;;;19.20;99.90;;;;;;5130763;27;20561;-61
2022/06/18 01:11:02;;;;;;;7.07;4.07;;;19.00;99.90;;;;;;5119303;28;20487;-61
2022/06/18 01:13:34;;;;;;;5.10;4.60;;;18.90;99.90;;;;;;5120027;27;20433;-61
2022/06/18 01:16:04;;;;;;;8.60;5.20;;;18.90;99.90;;;;;;5120066;28;20806;-61
2022/06/18 01:18:32;;;;;;;4.43;4.03;;;18.80;99.90;;;;;;5125712;27;20466;-61
2022/06/18 01:21:08;;;;;;;5.07;4.07;;;18.90;99.90;;;;;;5139989;27;20455;-61
2022/06/18 01:23:40;;;;;;;4.90;4.40;;;18.80;99.90;;;;;;5137456;27;20493;-61
2022/06/18 01:26:11;;;;;;;6.10;5.60;;;18.90;99.90;;;;;;5139518;27;20465;-61
2022/06/18 01:28:40;;;;;;;4.90;4.50;;;18.80;99.90;;;;;;5135011;27;20939;-60
2022/06/18 01:31:09;;;;;;;8.20;4.57;;;18.90;99.90;;;;;;5138325;27;20487;-61
2022/06/18 01:33:38;;;;;;;5.43;4.40;;;18.90;99.90;;;;;;5138082;27;20462;-61
2022/06/18 01:36:09;;;;;;;4.30;4.00;;;19.00;99.90;;;;;;5139717;27;20897;-61
2022/06/18 01:38:41;;;;;;;4.43;3.93;;;19.10;99.90;;;;;;5138641;27;20433;-60
2022/06/18 01:44:04;;;;;;;6.53;3.43;;;19.30;99.90;;;;;;5119171;28;20663;-61
2022/06/18 01:46:39;;;;;;;5.37;4.07;;;19.30;99.90;;;;;;5118923;28;20482;-61
2022/06/18 01:49:10;;;;;;;4.40;4.00;;;19.40;99.90;;;;;;5118489;28;20458;-61
2022/06/18 01:51:45;;;;;;;4.47;3.97;;;19.40;99.90;;;;;;5139665;27;20990;-61
2022/06/18 01:54:17;;;;;;;4.10;3.70;;;19.40;99.90;;;;;;5137469;27;20531;-61
2022/06/18 01:56:52;;;;;;;5.73;4.37;;;19.40;99.90;;;;;;5139408;27;20491;-61
2022/06/18 01:59:25;;;;;;;5.80;3.80;;;19.40;99.90;;;;;;5138497;27;20465;-61
2022/06/18 02:01:54;;;;;;;6.10;4.53;;;19.40;99.90;;;;;;5137519;27;20455;-60
2022/06/18 02:04:22;;;;;;;4.70;3.97;;;19.40;99.90;;;;;;5136955;27;20473;-61
2022/06/18 02:06:51;;;;;;;9.20;4.10;;;19.30;99.90;;;;;;5138992;27;20770;-61
2022/06/18 02:09:32;;;;;;;4.33;4.00;;;19.50;99.90;;;;;;5138659;27;20554;-60
2022/06/18 02:12:04;;;;;;;4.30;3.90;;;19.60;99.90;;;;;;5139130;27;20862;-61
2022/06/18 02:14:38;;;;;;;4.97;3.90;;;19.60;99.90;;;;;;5127051;27;20509;-61
2022/06/18 02:17:10;;;;;;;5.03;4.07;;;19.50;99.90;;;;;;5118348;28;20459;-61
2022/06/18 02:19:39;;;;;;;4.30;3.93;;;19.50;99.90;;;;;;5118650;28;20466;-61
2022/06/18 02:22:09;;;;;;;3.90;3.50;;;19.50;99.90;;;;;;5117802;28;20490;-61
2022/06/18 02:24:37;;;;;;;5.20;4.57;;;19.40;99.90;;;;;;5120297;27;20910;-61
2022/06/18 02:27:06;;;;;;;4.67;4.27;;;19.30;99.90;;;;;;5117992;28;20463;-61
2022/06/18 02:29:33;;;;;;;6.03;4.20;;;19.20;99.90;;;;;;5119173;27;20463;-61
2022/06/18 02:32:03;;;;;;;5.33;4.83;;;19.10;99.90;;;;;;5118237;28;20859;-61
2022/06/18 02:34:32;;;;;;;4.30;3.97;;;19.00;99.90;;;;;;5119437;27;20470;-61
2022/06/18 02:37:02;;;;;;;4.53;3.87;;;19.00;99.90;;;;;;5138658;27;20458;-61
2022/06/18 02:39:36;;;;;;;4.87;3.70;;;18.90;99.90;;;;;;5138030;27;20466;-60
2022/06/18 02:42:08;;;;;;;3.93;3.60;;;18.90;99.90;;;;;;5138893;27;20429;-61
2022/06/18 02:44:35;;;;;;;4.10;3.80;;;18.90;99.90;;;;;;5133980;27;20467;-61
2022/06/18 02:47:06;;;;;;;7.97;4.03;;;18.80;99.90;;;;;;5131401;27;20470;-61
2022/06/18 02:49:36;;;;;;;4.57;4.00;;;18.90;99.90;;;;;;5126399;27;20486;-61
2022/06/18 02:52:05;;;;;;;4.70;4.03;;;18.90;99.90;;;;;;5132068;27;20870;-61
2022/06/18 02:54:33;;;;;;;4.53;3.93;;;18.90;99.90;;;;;;5136437;27;20481;-61
2022/06/18 02:57:04;;;;;;;3.87;3.57;;;18.90;99.90;;;;;;5121800;27;20499;-61
2022/06/18 02:59:33;;;;;;;5.33;3.70;;;19.00;99.90;;;;;;5117020;28;20544;-61
2022/06/18 03:02:00;;;;;;;4.37;3.97;;;19.00;99.90;;;;;;5117662;27;20812;-61
2022/06/18 03:04:27;;;;;;;4.40;4.10;;;19.10;99.90;;;;;;5116508;28;20466;-61
2022/06/18 03:06:54;;;;;;;3.90;3.57;;;19.10;99.90;;;;;;5126536;28;20454;-61
2022/06/18 03:09:21;;;;;;;4.03;3.73;;;19.20;99.90;;;;;;5136398;27;20782;-61
2022/06/18 03:14:37;;;;;;;4.40;3.67;;;19.20;99.90;;;;;;5136180;28;20434;-61
2022/06/18 03:17:05;;;;;;;4.33;3.97;;;19.20;99.90;;;;;;5133297;28;20462;-61
2022/06/18 03:19:36;;;;;;;4.43;4.00;;;19.00;99.90;;;;;;5137137;27;20838;-61
2022/06/18 03:22:10;;;;;;;4.70;3.90;;;18.90;99.90;;;;;;5135132;27;20486;-61
2022/06/18 03:24:40;;;;;;;5.00;4.50;;;18.70;99.90;;;;;;5138422;28;20461;-60
2022/06/18 03:27:08;;;;;;;4.47;4.10;;;18.60;99.90;;;;;;5123796;28;20859;-61
2022/06/18 03:29:36;;;;;;;6.97;4.20;;;18.60;99.90;;;;;;5119141;28;20501;-61
2022/06/18 03:32:07;;;;;;;5.83;4.40;;;18.50;99.90;;;;;;5116812;28;20803;-61
2022/06/18 03:34:35;;;;;;;4.23;3.87;;;18.50;99.90;;;;;;5116122;28;20472;-61
2022/06/18 03:37:02;;;;;;;4.27;3.90;;;18.50;99.90;;;;;;5116957;28;20470;-61
2022/06/18 03:39:29;;;;;;;4.60;4.07;;;18.40;99.90;;;;;;5134829;28;20459;-61
2022/06/18 03:41:58;;;;;;;4.70;4.20;;;18.40;99.90;;;;;;5136270;27;20774;-60
2022/06/18 03:44:26;;;;;;;6.20;4.13;;;18.40;99.90;;;;;;5137354;27;20454;-61
2022/06/18 03:47:04;;;;;;;4.63;4.03;;;18.50;99.90;;;;;;5139984;27;20465;-61
2022/06/18 03:49:33;;;;;;;4.10;3.80;;;18.50;99.90;;;;;;5123046;27;20550;-61
2022/06/18 03:52:03;;;;;;;4.63;4.20;;;18.50;99.90;;;;;;5120876;27;20487;-61
2022/06/18 03:54:31;;;;;;;4.83;4.33;;;18.60;99.90;;;;;;5120627;28;20459;-61
2022/06/18 03:56:58;;;;;;;4.20;3.90;;;18.60;99.90;;;;;;5120765;28;20820;-61
2022/06/18 03:59:27;;;;;;;4.63;4.17;;;18.70;99.90;;;;;;5132947;27;20459;-61
2022/06/18 04:01:56;;;;;;;5.03;3.50;;;18.90;99.90;;;;;;5126294;27;20475;-61
2022/06/18 04:04:23;;;;;;;5.97;4.10;;;18.90;99.90;;;;;;5137008;27;20486;-61
2022/06/18 04:06:50;;;;;;;4.53;4.13;;;19.00;99.90;;;;;;5141170;27;20462;-61
2022/06/18 04:09:17;;;;;;;6.00;4.00;;;19.10;99.90;;;;;;5134265;27;20552;-61
2022/06/18 04:11:45;;;;;;;5.97;4.00;;;19.20;99.90;;;;;;5120623;28;20931;-61
2022/06/18 04:14:12;;;;;;;4.80;4.30;;;19.20;99.90;;;;;;5121424;27;20888;-61
2022/06/18 04:16:39;;;;;;;4.27;3.87;;;19.30;99.90;;;;;;5120820;28;20469;-60
2022/06/18 04:19:10;;;;;;;4.23;3.70;;;19.40;99.90;;;;;;5121779;27;20459;-61
2022/06/18 04:21:37;;;;;;;4.33;3.83;;;19.50;99.90;;;;;;5135669;27;20455;-61
2022/06/18 04:24:05;;;;;;;4.00;3.70;;;19.50;99.90;;;;;;5139519;27;20462;-61
2022/06/18 04:26:32;;;;;;;4.33;3.90;;;19.50;99.90;;;;;;5140937;27;20756;-61
2022/06/18 04:28:59;;;;;;;7.43;4.47;;;19.40;99.90;;;;;;5140841;27;20458;-61
2022/06/18 04:31:28;;;;;;;5.00;3.83;;;19.50;99.90;;;;;;5138907;27;20784;-61
2022/06/18 04:33:55;;;;;;;4.50;4.10;;;19.50;99.90;;;;;;5141172;27;20740;-61
2022/06/18 04:36:33;;;;;;;4.93;3.60;;;19.50;99.90;;;;;;5138803;27;20480;-61
2022/06/18 04:39:02;;;;;;;4.60;4.10;;;19.60;99.90;;;;;;5140594;27;20469;-60
2022/06/18 04:41:32;;;;;;;5.17;3.77;;;19.70;99.90;;;;;;5137273;27;20447;-61
2022/06/18 04:43:59;;;;;;;6.97;3.47;;;19.70;99.90;;;;;;5141161;27;20458;-61
2022/06/18 04:46:26;;;;;;;6.97;3.50;;;19.80;99.90;;;;;;5138445;27;20462;-61
2022/06/18 04:48:53;;;;;;;3.73;3.43;;;19.80;99.90;;;;;;5140564;27;20511;-61
2022/06/18 04:51:21;;;;;;;4.00;3.50;;;19.90;99.90;;;;;;5139340;27;20462;-61
2022/06/18 04:53:52;;;;;;;4.80;3.87;;;19.90;99.90;;;;;;5120445;28;20451;-61
2022/06/18 04:56:21;;;;;;;4.13;3.80;;;20.00;99.90;;;;;;5118298;28;20459;-61
2022/06/18 04:58:51;;;;;;;5.30;4.20;;;20.00;99.90;;;;;;5119667;28;20459;-61
2022/06/18 05:01:20;;;;;;;4.87;3.97;;;20.10;99.90;;;;;;5120191;28;20455;-60
2022/06/18 05:03:48;;;;;;;4.53;3.90;;;20.10;99.90;;;;;;5137058;27;20553;-61
2022/06/18 05:06:16;;;;;;;4.53;4.03;;;20.20;99.90;;;;;;5139668;27;20473;-61
2022/06/18 05:08:45;;;;;;;4.53;3.90;;;20.20;99.90;;;;;;5140134;27;20463;-60
2022/06/18 05:11:13;;;;;;;4.30;3.70;;;20.30;99.90;;;;;;5140151;27;20462;-61
2022/06/18 05:13:40;;;;;;;4.60;4.30;;;20.40;99.90;;;;;;5128078;27;20466;-61
2022/06/18 05:16:08;;;;;;;4.37;3.93;;;20.50;99.90;;;;;;5119315;28;20479;-61
2022/06/18 05:18:37;;;;;;;6.80;4.53;;;20.50;99.90;;;;;;5120172;27;20471;-61
2022/06/18 05:21:04;;;;;;;4.97;3.93;;;20.60;99.90;;;;;;5119526;28;20811;-61
2022/06/18 05:23:31;;;;;;;4.20;3.90;;;20.70;99.90;;;;;;5126592;27;20512;-61
2022/06/18 05:26:01;;;;;;;4.50;4.10;;;20.80;99.90;;;;;;5140020;27;20465;-60
2022/06/18 05:28:30;;;;;;;4.00;3.60;;;20.90;99.90;;;;;;5137957;27;20489;-61
2022/06/18 05:30:57;;;;;;;3.67;3.37;;;21.00;99.90;;;;;;5138518;27;20822;-60
2022/06/18 05:33:24;;;;;;;3.97;3.67;;;21.20;99.90;;;;;;5137599;27;20954;-61
2022/06/18 05:35:51;;;;;;;5.60;4.33;;;21.30;99.90;;;;;;5138622;27;20891;-61
2022/06/18 05:38:23;;;;;;;4.70;3.97;;;21.50;99.90;;;;;;5138614;27;20769;-60
2022/06/18 05:40:50;;;;;;;4.80;4.40;;;21.70;99.90;;;;;;5139684;27;20462;-61
2022/06/18 05:43:17;;;;;;;4.33;3.93;;;21.80;99.90;;;;;;5139608;27;20462;-60
2022/06/18 05:45:46;;;;;;;6.50;3.90;;;22.00;99.90;;;;;;5120110;27;20470;-61
2022/06/18 05:48:13;;;;;;;4.87;4.00;;;22.20;99.90;;;;;;5124285;27;20476;-60
2022/06/18 05:50:41;;;;;;;4.23;3.73;;;22.40;99.90;;;;;;5138454;27;20454;-60
2022/06/18 05:53:08;;;;;;;4.60;3.77;;;22.70;99.90;;;;;;5138423;27;20490;-60
2022/06/18 05:55:37;;;;;;;7.17;4.03;;;22.90;99.90;;;;;;5137169;27;20459;-60
2022/06/18 05:58:04;;;;;;;4.27;3.80;;;23.10;99.90;;;;;;5138619;27;20557;-61
2022/06/18 06:00:35;;;;;;;5.60;4.30;;;23.40;99.90;;;;;;5137044;27;20902;-61
2022/06/18 06:03:04;;;;;;;4.80;4.40;;;23.70;99.90;;;;;;5138992;27;20458;-61
2022/06/18 06:05:32;;;;;;;4.50;4.00;;;23.80;99.90;;;;;;5128850;27;20879;-61
2022/06/18 06:07:59;;;;;;;4.50;4.10;;;24.00;99.90;;;;;;5118375;28;20455;-61
2022/06/18 06:13:17;;;;;;;3.97;3.67;;;24.30;99.90;;;;;;5128412;27;20489;-61
2022/06/18 06:15:44;;;;;;;5.87;3.83;;;24.50;99.90;;;;;;5130447;27;20543;-61
2022/06/18 06:18:14;;;;;;;6.73;4.30;;;24.80;99.90;;;;;;5118208;28;20754;-61
2022/06/18 06:20:45;;;;;;;5.00;4.50;;;25.00;99.90;;;;;;5117811;28;20470;-61
2022/06/18 06:23:14;;;;;;;4.10;3.70;;;25.20;99.90;;;;;;5118370;28;20495;-61
2022/06/18 06:25:42;;;;;;;4.63;3.90;;;25.40;99.90;;;;;;5120977;27;20457;-61
2022/06/18 06:28:14;;;;;;;5.13;4.33;;;25.60;99.90;;;;;;5138321;27;20470;-61
2022/06/18 06:30:41;;;;;;;7.60;4.50;;;25.80;99.90;;;;;;5137991;27;20756;-61
2022/06/18 06:33:09;;;;;;;4.00;3.70;;;25.90;99.90;;;;;;5138534;27;20490;-61
2022/06/18 06:35:40;;;;;;;6.20;4.87;;;26.00;99.90;;;;;;5138490;27;20470;-61
2022/06/18 06:38:08;;;;;;;5.70;3.90;;;26.00;99.90;;;;;;5118660;28;20469;-61
2022/06/18 06:40:36;;;;;;;4.13;3.77;;;26.10;99.90;;;;;;5118975;27;20458;-61
2022/06/18 06:43:04;;;;;;;5.03;4.20;;;26.20;99.90;;;;;;5117287;28;20769;-61
2022/06/18 06:45:33;;;;;;;8.00;4.40;;;26.40;99.90;;;;;;5117461;28;20494;-62
2022/06/18 06:48:02;;;;;;;7.73;4.20;;;26.60;99.90;;;;;;5131921;27;20810;-62
2022/06/18 06:50:31;;;;;;;5.13;3.87;;;26.90;99.90;;;;;;5138478;27;20480;-62
2022/06/18 06:53:02;;;;;;;4.43;4.03;;;27.00;99.90;;;;;;5127585;27;20486;-62
2022/06/18 06:58:17;;;;;;;7.27;4.80;;;27.30;99.90;;;;;;5130268;27;20756;-62
2022/06/18 07:00:48;;;;;;;6.87;3.90;;;27.60;99.90;;;;;;5138143;27;20458;-62
2022/06/18 07:03:17;;;;;;;8.13;3.83;;;27.70;99.90;;;;;;5134911;27;20768;-62
2022/06/18 07:05:45;;;;;;;5.80;5.20;;;27.70;99.90;;;;;;5138044;27;20461;-62
2022/06/18 07:08:14;;;;;;;6.10;4.20;;;27.80;99.90;;;;;;5123673;27;20473;-62
2022/06/18 07:10:43;;;;;;;8.90;4.20;;;27.90;99.90;;;;;;5121838;28;20503;-62
2022/06/18 07:13:13;;;;;;;6.87;4.03;;;28.00;99.90;;;;;;5116840;28;20487;-63
2022/06/18 07:15:41;;;;;;;7.73;4.40;;;28.30;99.90;;;;;;5134558;28;20565;-63
2022/06/18 07:18:15;;;;;;;4.50;4.10;;;28.50;99.90;;;;;;5134365;28;20470;-61
2022/06/18 07:20:44;;;;;;;5.77;4.13;;;28.40;99.90;;;;;;5138656;27;20532;-62
2022/06/18 07:23:15;;;;;;;4.43;4.03;;;28.50;99.90;;;;;;5121392;27;20487;-62
2022/06/18 07:25:43;;;;;;;6.73;4.20;;;28.90;99.90;;;;;;5130568;27;20565;-62
2022/06/18 07:28:10;;;;;;;5.47;4.97;;;29.00;99.90;;;;;;5138479;27;20462;-62
2022/06/18 07:30:38;;;;;;;7.90;4.57;;;29.30;99.90;;;;;;5127409;27;20925;-63
2022/06/18 07:33:05;;;;;;;9.13;4.67;;;29.40;99.90;;;;;;5135089;27;20487;-63
2022/06/18 07:35:35;;;;;;;8.27;5.40;;;29.50;99.90;;;;;;5121184;28;20569;-63
2022/06/18 07:38:02;;;;;;;5.83;5.00;;;29.70;99.90;;;;;;5121650;28;20494;-61
2022/06/18 07:40:35;;;;;;;6.70;4.23;;;29.90;99.90;;;;;;5134675;27;20465;-60
2022/06/18 07:43:04;;;;;;;8.63;4.60;;;29.80;99.90;;;;;;5125513;27;20536;-60
2022/06/18 07:45:33;;;;;;;4.83;4.30;;;29.70;99.90;;;;;;5121137;28;20467;-61
2022/06/18 07:48:00;;;;;;;5.37;4.27;;;29.80;99.90;;;;;;5120628;28;20464;-60
2022/06/18 07:50:31;;;;;;;6.17;4.00;;;29.50;99.90;;;;;;5136322;27;20462;-61
2022/06/18 07:52:58;;;;;;;4.77;4.10;;;29.80;99.90;;;;;;5140247;27;20479;-61
2022/06/18 07:55:28;;;;;;;6.17;4.47;;;30.20;99.90;;;;;;5141000;27;20450;-60
2022/06/18 07:57:57;;;;;;;6.30;4.40;;;30.50;99.90;;;;;;5139258;27;20442;-60
2022/06/18 08:00:26;;;;;;;5.07;4.13;;;30.50;99.90;;;;;;5137705;27;20455;-61
2022/06/18 08:02:53;;;;;;;6.67;4.63;;;30.80;99.90;;;;;;5137882;27;20524;-61
2022/06/18 08:05:23;;;;;;;9.10;4.37;;;30.80;99.90;;;;;;5126453;27;20478;-61
2022/06/18 08:07:53;;;;;;;6.63;4.53;;;30.70;99.90;;;;;;5122545;27;20800;-61
2022/06/18 08:10:21;;;;;;;6.03;4.60;;;30.80;99.90;;;;;;5139195;27;20461;-60
2022/06/18 08:12:48;;;;;;;6.90;3.93;;;31.00;99.90;;;;;;5140879;27;20779;-61
2022/06/18 08:15:23;;;;;;;6.80;4.60;;;30.80;99.90;;;;;;5140727;27;20469;-61
2022/06/18 08:17:50;;;;;;;11.77;5.13;;;31.10;99.90;;;;;;5140931;27;20882;-61
2022/06/18 08:20:18;;;;;;;5.67;5.00;;;31.40;99.90;;;;;;5140894;27;20465;-61
2022/06/18 08:22:48;;;;;;;7.10;4.00;;;31.20;99.90;;;;;;5120159;27;20491;-61
2022/06/18 08:25:17;;;;;;;7.23;4.60;;;31.30;99.90;;;;;;5120099;28;20483;-60
2022/06/18 08:27:51;;;;;;;8.97;4.67;;;31.10;99.90;;;;;;5120584;28;20880;-61
2022/06/18 08:30:23;;;;;;;4.77;4.10;;;31.50;99.90;;;;;;5120143;28;20495;-61
2022/06/18 08:32:55;;;;;;;10.03;4.83;;;31.80;99.90;;;;;;5134633;27;20492;-61
2022/06/18 08:35:24;;;;;;;4.83;4.40;;;32.00;99.90;;;;;;5140654;27;20803;-61
2022/06/18 08:37:52;;;;;;;9.50;4.43;;;31.80;99.90;;;;;;5140732;27;20466;-61
2022/06/18 08:40:36;;;;;;;7.43;4.37;;;31.70;99.90;;;;;;5140704;27;20495;-61
2022/06/18 08:43:13;;;;;;;10.67;4.33;;;31.90;99.90;;;;;;5126582;27;20455;-61
2022/06/18 08:45:50;;;;;;;8.17;4.57;;;32.30;99.90;;;;;;5120178;28;20466;-61
2022/06/18 08:48:35;;;;;;;6.60;4.30;;;32.40;99.90;;;;;;5132823;27;20537;-61
2022/06/18 08:51:18;;;;;;;5.63;3.97;;;32.40;99.90;;;;;;5138624;27;20771;-61
2022/06/18 08:54:08;;;;;;;5.03;4.63;;;32.30;99.90;;;;;;5136464;27;20486;-61
2022/06/18 08:56:43;;;;;;;10.80;4.27;;;32.50;99.90;;;;;;5136523;27;20458;-61
2022/06/18 08:59:27;;;;;;;7.00;4.67;;;32.90;99.90;;;;;;5140084;27;20460;-61
2022/06/18 09:02:02;;;;;;;6.33;4.67;;;33.10;99.90;;;;;;5139742;27;20878;-61
2022/06/18 09:04:45;;;;;;;6.17;4.77;;;33.20;99.90;;;;;;5140098;27;20477;-61
2022/06/18 09:07:35;;;;;;;4.40;4.00;;;33.40;99.90;;;;;;5135181;27;20824;-60
2022/06/18 09:10:08;;;;;;;7.80;4.50;;;33.50;99.90;;;;;;5120170;28;20461;-61
2022/06/18 09:12:39;;;;;;;5.73;5.03;;;33.20;99.90;;;;;;5118936;28;20429;-60
2022/06/18 09:15:16;;;;;;;5.37;4.87;;;33.30;99.90;;;;;;5120056;27;20459;-57
2022/06/18 09:17:51;;;;;;;5.43;3.80;;;33.40;99.90;;;;;;5127127;27;20476;-58
2022/06/18 09:20:23;;;;;;;5.27;4.70;;;33.60;99.90;;;;;;5118624;28;20458;-58
2022/06/18 09:22:54;;;;;;;7.07;4.80;;;33.60;99.90;;;;;;5126652;27;20477;-58
2022/06/18 09:25:30;;;;;;;5.60;5.00;;;33.50;99.90;;;;;;5137884;27;20464;-58
2022/06/18 09:28:04;;;;;;;8.80;4.97;;;33.40;99.90;;;;;;5136209;27;20457;-58
2022/06/18 09:30:39;;;;;;;7.20;4.27;;;33.70;99.90;;;;;;5128652;27;20490;-60
2022/06/18 09:33:15;;;;;;;5.70;4.87;;;33.90;99.90;;;;;;5117986;27;20490;-60
2022/06/18 09:35:56;;;;;;;7.40;4.80;;;33.80;99.90;;;;;;5118919;27;20473;-61
2022/06/18 09:38:29;;;;;;;6.23;4.53;;;34.40;99.90;;;;;;5137587;27;20464;-60
2022/06/18 09:41:04;;;;;;;11.70;4.70;;;33.80;99.90;;;;;;5138679;27;20454;-60
2022/06/18 09:43:42;;;;;;;8.10;4.30;;;34.20;99.90;;;;;;5138455;27;20457;-61
2022/06/18 09:46:13;;;;;;;9.93;5.13;;;34.00;99.90;;;;;;5137082;27;20894;-61
2022/06/18 09:48:44;;;;;;;8.87;4.73;;;34.10;99.90;;;;;;5137630;27;20913;-61
2022/06/18 09:51:20;;;;;;;11.90;4.50;;;34.30;99.90;;;;;;5138581;27;20461;-61
2022/06/18 09:53:53;;;;;;;10.10;4.90;;;34.70;99.90;;;;;;5139306;27;20485;-62
2022/06/18 09:56:24;;;;;;;10.60;5.50;;;34.60;99.90;;;;;;5136233;27;20450;-60
2022/06/18 09:58:56;;;;;;;12.07;6.40;;;34.70;99.90;;;;;;5118619;28;20485;-61
2022/06/18 10:01:33;;;;;;;8.40;4.77;;;34.60;99.90;;;;;;5118359;28;20458;-61
2022/06/18 10:06:55;;;;;;;7.53;5.00;;;34.70;99.90;;;;;;5118249;27;20433;-61
2022/06/18 10:09:28;;;;;;;10.10;5.27;;;35.20;99.90;;;;;;5136967;27;20469;-61
2022/06/18 10:11:55;;;;;;;8.70;5.27;;;35.40;99.90;;;;;;5137344;27;20486;-60
2022/06/18 10:14:24;;;;;;;5.23;4.43;;;35.00;99.90;;;;;;5137128;27;20853;-61
2022/06/18 10:17:02;;;;;;;12.63;5.17;;;35.10;99.90;;;;;;5137599;27;20458;-60
2022/06/18 10:19:44;;;;;;;5.70;4.63;;;35.70;99.90;;;;;;5117612;27;20473;-60
2022/06/18 10:22:22;;;;;;;12.57;5.30;;;35.80;99.90;;;;;;5134005;27;20543;-61
2022/06/18 10:24:57;;;;;;;10.63;4.60;;;35.70;99.90;;;;;;5117879;28;20455;-60
2022/06/18 10:27:33;;;;;;;7.10;4.70;;;35.70;99.90;;;;;;5118833;27;20785;-60
2022/06/18 10:30:08;;;;;;;5.80;4.60;;;35.60;99.90;;;;;;5137596;27;20453;-60
2022/06/18 10:32:46;;;;;;;10.20;4.50;;;35.40;99.90;;;;;;5126534;27;20462;-61
2022/06/18 10:35:30;;;;;;;9.23;4.10;;;34.80;99.90;;;;;;5136167;27;20489;-61
2022/06/18 10:38:11;;;;;;;13.30;4.70;;;35.30;99.90;;;;;;5126470;27;20466;-60
2022/06/18 10:40:50;;;;;;;7.60;4.90;;;35.50;99.90;;;;;;5117477;28;20494;-61
2022/06/18 10:43:35;;;;;;;10.13;5.13;;;35.60;99.90;;;;;;5120782;27;20458;-61
2022/06/18 10:46:07;;;;;;;9.00;5.37;;;36.10;99.90;;;;;;5117820;28;20512;-61
2022/06/18 10:48:35;;;;;;;8.20;4.17;;;35.70;99.90;;;;;;5116834;28;20466;-60
2022/06/18 10:51:17;;;;;;;11.13;5.30;;;35.30;99.90;;;;;;5117285;28;20462;-61
2022/06/18 10:53:48;;;;;;;13.33;5.30;;;35.20;99.90;;;;;;5117686;27;20510;-60
2022/06/18 10:56:18;;;;;;;11.20;5.20;;;35.20;99.90;;;;;;5115764;28;20462;-60
2022/06/18 10:58:52;;;;;;;11.47;5.90;;;35.50;99.90;;;;;;5119082;28;20458;-60
2022/06/18 11:01:27;;;;;;;9.73;4.80;;;35.90;99.90;;;;;;5116838;28;20458;-61
2022/06/18 11:03:59;;;;;;;10.00;4.90;;;36.50;99.90;;;;;;5119503;28;20433;-60
2022/06/18 11:06:28;;;;;;;11.47;5.93;;;36.40;99.90;;;;;;5137294;27;20449;-60
2022/06/18 11:08:59;;;;;;;9.70;4.80;;;36.80;99.90;;;;;;5134224;28;20429;-60
2022/06/18 11:11:28;;;;;;;10.70;4.60;;;36.80;99.90;;;;;;5136990;28;20457;-61
2022/06/18 11:13:55;;;;;;;11.23;4.60;;;36.90;99.90;;;;;;5136008;28;20478;-61
2022/06/18 11:16:29;;;;;;;10.77;4.87;;;36.50;99.90;;;;;;5133560;28;20465;-60
2022/06/18 11:18:59;;;;;;;9.73;5.70;;;36.50;99.90;;;;;;5135647;28;20463;-60
2022/06/18 11:21:32;;;;;;;8.60;4.70;;;36.30;99.90;;;;;;5136686;27;20457;-60
2022/06/18 11:24:03;;;;;;;9.97;5.67;;;36.70;99.90;;;;;;5137381;28;20768;-60
2022/06/18 11:26:31;;;;;;;10.03;5.13;;;37.00;99.90;;;;;;5120717;27;20459;-61
2022/06/18 11:29:07;;;;;;;12.90;5.20;;;37.00;99.90;;;;;;5117347;28;20472;-62
2022/06/18 11:31:37;;;;;;;14.13;5.73;;;36.90;99.90;;;;;;5116585;28;20465;-60
2022/06/18 11:34:08;;;;;;;12.10;4.83;;;36.90;99.90;;;;;;5116445;28;20490;-60
2022/06/18 11:36:55;;;;;;;12.07;5.30;;;37.20;99.90;;;;;;5128858;28;20507;-61
2022/06/18 11:39:36;;;;;;;13.68;5.00;;;37.40;99.90;;;;;;5136060;27;20204;-61
2022/06/18 11:42:15;;;;;;;14.33;5.60;;;36.90;99.90;;;;;;5137679;27;20211;-61
2022/06/18 11:44:51;;;;;;;10.95;5.07;;;36.90;99.90;;;;;;5137024;28;20453;-61
2022/06/18 11:47:26;;;;;;;11.30;5.73;;;36.70;99.90;;;;;;5121389;28;20208;-61
2022/06/18 11:49:59;;;;;;;10.93;5.03;;;36.80;99.90;;;;;;5117175;28;20209;-61
2022/06/18 11:52:36;;;;;;;15.50;5.05;;;37.30;99.90;;;;;;5116580;28;20205;-61
2022/06/18 11:55:17;;;;;;;8.85;4.53;;;37.50;99.90;;;;;;5116650;28;20264;-61
2022/06/18 11:57:50;;;;;;;8.10;5.65;;;37.50;99.90;;;;;;5130090;28;20208;-61
2022/06/18 12:00:20;;;;;;;20.43;5.77;;;37.10;99.90;;;;;;5136545;27;20227;-60
2022/06/18 12:03:10;;;;;;;9.33;5.43;;;36.80;99.90;;;;;;5116838;28;20774;-61
2022/06/18 12:05:42;;;;;;;9.15;5.65;;;37.20;99.90;;;;;;5116637;28;20543;-61
2022/06/18 12:08:20;;;;;;;7.95;5.25;;;37.40;99.90;;;;;;5122348;27;20291;-61
2022/06/18 12:10:57;;;;;;;10.47;5.00;;;37.40;99.90;;;;;;5139745;27;20302;-61
2022/06/18 12:13:32;;;;;;;10.18;5.22;;;37.00;99.90;;;;;;5120839;28;20201;-60
2022/06/18 12:16:07;;;;;;;8.98;5.45;;;37.20;99.90;;;;;;5121178;28;20512;-61
2022/06/18 12:18:46;;;;;;;11.55;5.65;;;37.30;99.90;;;;;;5133742;27;20200;-61
2022/06/18 12:21:28;;;;;;;12.93;5.55;;;37.70;99.90;;;;;;5129195;27;20215;-60
2022/06/18 12:24:04;;;;;;;11.20;5.55;;;37.50;99.90;;;;;;5120731;28;20208;-61
2022/06/18 12:26:41;;;;;;;13.20;4.93;;;37.60;99.90;;;;;;5119894;28;20204;-60
2022/06/18 12:29:39;;;;;;;10.90;5.22;;;37.90;99.90;;;;;;5119725;28;20562;-61
2022/06/18 12:32:21;;;;;;;10.18;4.85;;;38.00;99.90;;;;;;5121567;27;20224;-61
2022/06/18 12:35:03;;;;;;;16.73;5.78;;;38.00;99.90;;;;;;5119482;27;20225;-61
2022/06/18 12:37:44;;;;;;;11.30;5.45;;;37.50;99.90;;;;;;5119660;28;20284;-61
2022/06/18 12:40:21;;;;;;;13.38;5.68;;;37.20;99.90;;;;;;5117980;28;20258;-60
2022/06/18 12:42:53;;;;;;;8.98;5.15;;;37.50;99.90;;;;;;5118331;27;20209;-60
2022/06/18 12:45:32;;;;;;;12.68;5.88;;;37.70;99.90;;;;;;5121032;27;20201;-61
2022/06/18 12:48:09;;;;;;;11.98;5.38;;;37.70;99.90;;;;;;5120367;28;20240;-60
2022/06/18 12:50:46;;;;;;;10.95;6.05;;;37.40;99.90;;;;;;5119676;28;20205;-61
2022/06/18 12:53:30;;;;;;;11.23;6.07;;;37.40;99.90;;;;;;5135773;27;20290;-60
2022/06/18 12:56:05;;;;;;;10.55;5.25;;;37.30;99.90;;;;;;5135196;27;20665;-61
2022/06/18 12:58:42;;;;;;;14.82;6.15;;;37.10;99.90;;;;;;5121105;27;20201;-60
2022/06/18 13:01:17;;;;;;;8.63;5.18;;;37.00;99.90;;;;;;5120598;27;20243;-60
2022/06/18 13:04:07;;;;;;;8.77;5.38;;;37.40;99.90;;;;;;5133338;27;20542;-61
2022/06/18 13:06:45;;;;;;;12.43;4.68;;;37.40;99.90;;;;;;5136772;27;20209;-61
2022/06/18 13:09:23;;;;;;;12.20;5.47;;;37.80;99.90;;;;;;5139684;27;20299;-60
2022/06/18 13:12:05;;;;;;;11.70;5.60;;;37.80;99.90;;;;;;5125073;27;20208;-60
2022/06/18 13:14:46;;;;;;;10.05;5.70;;;37.70;99.90;;;;;;5136563;27;20228;-61
2022/06/18 13:17:19;;;;;;;9.60;6.07;;;37.70;99.90;;;;;;5127159;27;20637;-60
2022/06/18 13:19:57;;;;;;;10.73;5.77;;;37.10;99.90;;;;;;5118579;27;20608;-60
2022/06/18 13:22:27;;;;;;;14.80;5.57;;;37.10;99.90;;;;;;5115870;28;20901;-61
2022/06/18 13:30:46;;;;;;;10.33;6.33;;;37.00;99.90;;;;;;5137017;27;20317;-60
2022/06/18 13:33:26;;;;;;;14.40;6.80;;;37.30;99.90;;;;;;5135906;27;20759;-61